WetterOnline ( https://www.wetteronline.de )

Wetter aktuell Alsfeld

Aktuelles Wetter: Neu-Ulrichstein (350m)

6-stündlich | Neueste Meldungen
Ortszeit Temperatur Wetter
Do, 29.07. 20:00 19.0° C wolkig
Do, 29.07. 14:00 19.6° C leicht bewölkt
Do, 29.07. 8:00 14.7° C bedeckt
Do, 29.07. 2:00 15.2° C leicht bewölkt
Mi, 28.07. 20:00 19.9° C bewölkt
Mi, 28.07. 14:00 19.4° C bewölkt
Mi, 28.07. 8:00 15.0° C bewölkt
Mi, 28.07. 2:00 14.9° C bedeckt
Ortszeit Temperatur Wetter
Fr, 30.07. 0:00 14.8° C wolkenlos
Do, 29.07. 23:50 14.8° C wolkenlos
Do, 29.07. 23:40 15.1° C leicht bewölkt
Do, 29.07. 23:30 15.2° C bewölkt
Do, 29.07. 23:20 15.2° C bewölkt
Do, 29.07. 23:10 15.1° C bewölkt
Do, 29.07. 23:00 15.4° C bedeckt
Do, 29.07. 22:30 15.5° C bewölkt
Do, 29.07. 22:00 15.9° C leicht bewölkt
Do, 29.07. 21:30 15.7° C fast wolkenlos
Do, 29.07. 21:00 16.7° C fast wolkenlos
Ortszeit Relative Feuchte Sichtweite
Do, 29.07. 20:00 54% 50 km
Do, 29.07. 14:00 54% 50 km
Do, 29.07. 8:00 88% 35 km
Do, 29.07. 2:00 81% 45 km
Mi, 28.07. 20:00 63% 60 km
Mi, 28.07. 14:00 76% 40 km
Mi, 28.07. 8:00 96% 7 km
Mi, 28.07. 2:00 95% 30 km
Ortszeit Relative Feuchte Sichtweite
Fr, 30.07. 0:00 72% 60 km
Do, 29.07. 23:50 72% -
Do, 29.07. 23:40 70% -
Do, 29.07. 23:30 70% 45 km
Do, 29.07. 23:20 70% -
Do, 29.07. 23:10 71% -
Do, 29.07. 23:00 69% 45 km
Do, 29.07. 22:30 69% 45 km
Do, 29.07. 22:00 68% 55 km
Do, 29.07. 21:30 68% 60 km
Do, 29.07. 21:00 62% 50 km
Ortszeit Niederschlagsmenge Niederschlagsart
Do, 29.07. 20:00 0.1 l/m2 in 12 Std. -
Do, 29.07. 14:00 0.1 l/m2 in 6 Std. Regen
Do, 29.07. 8:00 0.1 l/m2 in 12 Std. Regen
Do, 29.07. 2:00 0.0 l/m2 in 6 Std. -
Mi, 28.07. 20:00 0.1 l/m2 in 12 Std. Regen
Mi, 28.07. 14:00 0.1 l/m2 in 6 Std. Regen
Mi, 28.07. 8:00 8 l/m2 in 12 Std. -
Mi, 28.07. 2:00 8 l/m2 in 6 Std. Regen
Ortszeit Niederschlagsmenge Niederschlagsart
Fr, 30.07. 0:00 0.0 l/m2 in 1 Std. -
Do, 29.07. 23:50 keine Meldung -
Do, 29.07. 23:40 keine Meldung -
Do, 29.07. 23:30 0.0 l/m2 in 1 Std. -
Do, 29.07. 23:20 keine Meldung -
Do, 29.07. 23:10 keine Meldung -
Do, 29.07. 23:00 0.0 l/m2 in 1 Std. -
Do, 29.07. 22:30 0.0 l/m2 in 1 Std. -
Do, 29.07. 22:00 0.0 l/m2 in 1 Std. -
Do, 29.07. 21:30 0.0 l/m2 in 1 Std. -
Do, 29.07. 21:00 0.0 l/m2 in 1 Std. -
Ortszeit Stärke Spitze Richtung
km/h Bft. km/h Grad Sektor
Do, 29.07. 20:00 18 3 50 240° SW
Do, 29.07. 14:00 31 5 48 240° SW
Do, 29.07. 8:00 15 3 28 190° S
Do, 29.07. 2:00 13 3 35 190° S
Mi, 28.07. 20:00 18 3 47 210° SW
Mi, 28.07. 14:00 25 4 40 180° S
Mi, 28.07. 8:00 14 3 29 190° S
Mi, 28.07. 2:00 11 2 22 170° S
Ortszeit Stärke Spitze Richtung
km/h Bft. km/h Grad Sektor
Fr, 30.07. 0:00 13 3 19 220° SW
Do, 29.07. 23:50 13 3 - 220° SW
Do, 29.07. 23:40 13 3 - 220° SW
Do, 29.07. 23:30 13 3 19 210° SW
Do, 29.07. 23:20 13 3 - 210° SW
Do, 29.07. 23:10 14 3 - 220° SW
Do, 29.07. 23:00 14 3 22 220° SW
Do, 29.07. 22:30 11 2 18 210° SW
Do, 29.07. 22:00 11 2 18 210° SW
Do, 29.07. 21:30 13 3 17 230° SW
Do, 29.07. 21:00 15 3 30 240° SW
Ortszeit Untergrenze Bedeckung Gattung
total tief tief mittel hoch
Do, 29.07. 20:00 2100 m 7/8 3/8 - - -
Do, 29.07. 14:00 2100 m 3/8 3/8 - - -
Do, 29.07. 8:00 2100 m 8/8 8/8 - - -
Do, 29.07. 2:00 2100 m 3/8 3/8 - - -
Mi, 28.07. 20:00 2100 m 7/8 7/8 - - -
Mi, 28.07. 14:00 600 m 7/8 7/8 - - -
Mi, 28.07. 8:00 180 m 8/8 7/8 - - -
Mi, 28.07. 2:00 2700 m 8/8 8/8 - - -
Ortszeit Bedeckungsgrad in Achtel und Wolkenuntergrenze
Fr, 30.07. 0:00 keine Wolken
Do, 29.07. 23:50 keine Wolken
Do, 29.07. 23:40 2(6000m) 2(6600m)
Do, 29.07. 23:30 7(6000m) 7(6600m)
Do, 29.07. 23:20 7(6000m) 7(6600m)
Do, 29.07. 23:10 2(4800m) 7(6000m) 7(7500m)
Do, 29.07. 23:00 6(4800m) 8(5700m) 8(6600m)
Do, 29.07. 22:30 7(5100m) 7(6000m) 7(6600m)
Do, 29.07. 22:00 4(6000m) 4(6900m) 7(7200m)
Do, 29.07. 21:30 1(8100m) 1(8400m)
Do, 29.07. 21:00 1(8100m)
Ortszeit Luftdruck NN (hPa) Tendenz (hPa in 3 Std.)
Do, 29.07. 20:00 1012 - 0,1
Do, 29.07. 14:00 1013 + 0,1
Do, 29.07. 8:00 1013 + 0,6
Do, 29.07. 2:00 1013 + 0,2
Mi, 28.07. 20:00 1011 - 0,2
Mi, 28.07. 14:00 1011 - 0,7
Mi, 28.07. 8:00 1013 0,0
Mi, 28.07. 2:00 1013 - 0,8
Ortszeit Luftdruck NN (hPa) Tendenz (hPa in 3 Std.)
Fr, 30.07. 0:00 1013 + 0,2
Do, 29.07. 23:50 1013 keine Meldung
Do, 29.07. 23:40 1013 keine Meldung
Do, 29.07. 23:30 1013 + 0,2
Do, 29.07. 23:20 1013 keine Meldung
Do, 29.07. 23:10 1013 keine Meldung
Do, 29.07. 23:00 1013 + 0,3
Do, 29.07. 22:30 1013 + 0,1
Do, 29.07. 22:00 1013 + 0,2
Do, 29.07. 21:30 1013 - 0,1
Do, 29.07. 21:00 1013 - 0,3
Ortszeit Schneehöhe (cm)
Do, 29.07. 20:00 -
Do, 29.07. 14:00 -
Do, 29.07. 8:00 -
Do, 29.07. 2:00 -
Mi, 28.07. 20:00 -
Mi, 28.07. 14:00 -
Mi, 28.07. 8:00 -
Mi, 28.07. 2:00 -
Ortszeit Schneehöhe (cm)
Fr, 30.07. 0:00 -
Do, 29.07. 23:50 -
Do, 29.07. 23:40 -
Do, 29.07. 23:30 -
Do, 29.07. 23:20 -
Do, 29.07. 23:10 -
Do, 29.07. 23:00 -
Do, 29.07. 22:30 -
Do, 29.07. 22:00 -
Do, 29.07. 21:30 -
Do, 29.07. 21:00 -
Link zu dieser Seite / Seite empfehlen

Das Wetter in ...